createdAt,value
2019-02-16T00:48:31.161Z,2.40
2019-02-16T00:59:46.819Z,2.30
2019-02-16T01:10:48.137Z,2.30
2019-02-16T01:21:22.721Z,2.20
2019-02-16T01:26:24.242Z,2.20
2019-02-16T01:31:29.368Z,2.30
2019-02-16T01:36:34.316Z,2.20
2019-02-16T01:41:57.215Z,2.10
2019-02-16T01:53:02.191Z,2.00
2019-02-16T01:58:29.730Z,2.10
2019-02-16T02:03:59.943Z,1.90
2019-02-16T02:21:29.052Z,1.80
2019-02-16T02:39:05.443Z,1.60
2019-02-16T02:44:47.765Z,1.60
2019-02-16T02:49:55.523Z,1.60
2019-02-16T02:55:27.193Z,1.50
2019-02-16T03:00:54.104Z,1.50
2019-02-16T03:11:20.375Z,1.50
2019-02-16T03:22:02.502Z,1.40
2019-02-16T03:27:32.410Z,1.50
2019-02-16T03:33:13.628Z,1.40
2019-02-16T03:39:06.580Z,1.40
2019-02-16T03:50:11.941Z,1.30
2019-02-16T03:55:41.158Z,1.30
2019-02-16T04:01:04.932Z,1.30
2019-02-16T04:06:53.756Z,1.10
2019-02-16T04:12:03.900Z,1.10
2019-02-16T04:17:14.467Z,1.00
2019-02-16T04:22:36.927Z,1.00
2019-02-16T04:27:49.638Z,1.00
2019-02-16T04:32:54.757Z,0.90
2019-02-16T04:38:32.886Z,0.90
2019-02-16T04:43:43.832Z,0.70
2019-02-16T04:48:57.485Z,0.80
2019-02-16T04:54:09.449Z,0.70
2019-02-16T04:59:14.618Z,0.70
2019-02-16T05:04:19.226Z,0.60
2019-02-16T05:09:23.783Z,0.60
2019-02-16T05:14:28.798Z,0.60
2019-02-16T05:25:19.137Z,0.60
2019-02-16T05:30:42.385Z,0.60
2019-02-16T05:35:49.634Z,0.60
2019-02-16T05:40:57.393Z,0.60
2019-02-16T05:46:03.764Z,0.60
2019-02-16T05:51:08.186Z,0.50
2019-02-16T05:56:15.612Z,0.50
2019-02-16T06:01:22.615Z,0.50
2019-02-16T06:06:27.197Z,0.40
2019-02-16T06:11:31.839Z,0.20
2019-02-16T06:16:36.318Z,0.40
2019-02-16T06:21:40.936Z,0.30
2019-02-16T06:26:45.434Z,0.30
2019-02-16T06:31:49.757Z,0.20
2019-02-16T06:36:54.239Z,0.10
2019-02-16T06:41:58.680Z,0.40
2019-02-16T13:40:11.202Z,21.10
2019-02-16T13:46:27.125Z,21.10
2019-02-16T14:08:51.089Z,21.20
2019-02-16T15:58:51.541Z,15.30
2019-02-16T16:04:31.811Z,14.80
2019-02-16T16:15:47.640Z,14.10
2019-02-16T16:21:36.163Z,13.80
2019-02-16T16:27:41.093Z,13.40
2019-02-16T16:39:11.096Z,12.70
2019-02-16T16:58:34.622Z,11.80
2019-02-16T17:16:59.588Z,10.70
2019-02-16T17:22:42.262Z,10.30
2019-02-16T17:35:26.504Z,9.70
2019-02-16T17:48:13.640Z,9.20
2019-02-16T17:53:44.587Z,8.90
2019-02-16T18:00:18.674Z,8.70
2019-02-16T18:07:55.125Z,8.50
2019-02-16T18:18:22.318Z,8.10
2019-02-16T18:24:02.875Z,8.00
2019-02-16T18:29:48.456Z,7.90
